logo
Search for airport 
image banner adimage banner adimage banner ad
image banner ad

ED3000 - Serrig Und Hamm

Located in , Germany

ICAO - , IATA -

Data provided by Airmate  

General information

Coordinates: N49°34'8" E6°36'56"
Elevation is 1107 feet MSL.
 
View others Airports in Saarland

Operational data

Special qualification required
Current time UTC:
Current local time:
Weather at : ELLX - Luxembourg ( 30 km )
METAR: ELLX 241220Z 30005KT 220V030 9999 SCT036 SCT040 19/11 Q1021 NOSIG
TAF: TAF ELLX 241100Z 2412/2518 30007KT 9999 FEW030 BKN035 BECMG 2422/2424 03005KT BECMG 2506/2510 19005KT
View NOTAMs / SUP AIP / TFR affecting this airport [VIEW]
Communications frequencies: [VIEW]

Runways:

Airport contact information

Address: Germany

Satellite view of ED3000